Mary B. — WDD9748 — position and weather

sailwx.info

Track history (hours):
 
Tides and Currents Weather Stations Pressure Air Temp Water Temp Dewpoint Dewpoint Depression Visibility Wind Speed Wind Dir Waves Ship Positions

Mary B.

Owner: Bernert Barge Lines, Oregon City, OR. More information available from US FCC via Universal Licensing System and Coast Guard Vessel Documentation Center.

Last reported at 2018-Apr-24 08:28 UTC. Time now 2018-Apr-26 01:24 UTC.
Position N 46°05' W 122°56'.

MMSI: 333761398.

Date/timePositionNaut miles runAvg speedWind from/ knotsBaromVisibWave heightAir tempDewpointWater temp
2018-Apr-24 08:28N 46°05' W 122°56'0 1.0
2018-Apr-24 08:00N 46°06' W 122°56'0 0.3
2018-Apr-24 07:30N 46°06' W 122°55'0 0.0
2018-Apr-24 07:01N 46°06' W 122°55'0 0.8
2018-Apr-24 06:30N 46°06' W 122°56'0 0.8
2018-Apr-24 06:00N 46°06' W 122°55'1 1.0
2018-Apr-24 05:30N 46°06' W 122°56'0 0.0
2018-Apr-23 04:59N 46°05' W 122°56'0 0.9
2018-Apr-23 04:30N 46°06' W 122°56'0 0.3
2018-Apr-23 04:00N 46°06' W 122°56'1 1.0
2018-Apr-23 03:30N 46°06' W 122°56'2 3.1
2018-Apr-23 03:00N 46°07' W 122°58'0 0.8
2018-Apr-23 02:30N 46°07' W 122°58'0 0.1
2018-Apr-23 02:00N 46°07' W 122°58'5 9.9
2018-Apr-23 01:30N 46°03' W 122°53'611.8
2018-Apr-23 01:00N 45°58' W 122°50'611.7
2018-Apr-23 00:30N 45°52' W 122°47'611.3
2018-Apr-23 00:00N 45°47' W 122°46'611.4
2018-Apr-22 23:30N 45°41' W 122°47'510.8
2018-Apr-22 23:00N 45°37' W 122°41'510.9
2018-Apr-22 22:31N 45°36' W 122°34'611.3
2018-Apr-22 22:01N 45°34' W 122°26'5 9.4
2018-Apr-22 21:30N 45°33' W 122°19'611.0
2018-Apr-22 20:59N 45°34' W 122°11'4 0.4
2018-Apr-22 08:51N 45°35' W 122°05'4 6.7
2018-Apr-22 08:17N 45°35' W 122°11'2 6.5
2018-Apr-22 07:57N 45°33' W 122°13'4 6.1
2018-Apr-22 07:16N 45°33' W 122°19'2 5.8
2018-Apr-22 06:58N 45°34' W 122°21'3 5.1
2018-Apr-22 06:21N 45°34' W 122°26'2 5.8
2018-Apr-22 06:00N 45°35' W 122°29'4 6.1
2018-Apr-22 05:23N 45°36' W 122°34'2 6.0
2018-Apr-22 05:00N 45°36' W 122°37'3 6.0
2018-Apr-22 04:30N 45°37' W 122°41'3 6.4
2018-Apr-22 04:00N 45°39' W 122°45'3 6.3
2018-Apr-22 03:29N 45°42' W 122°46'3 6.4
2018-Apr-22 03:00N 45°45' W 122°46'3 6.4
2018-Apr-22 02:30N 45°48' W 122°47'3 6.3
2018-Apr-22 02:00N 45°51' W 122°47'3 6.0
2018-Apr-22 01:30N 45°54' W 122°49'0 0.5
2018-Apr-22 01:00N 45°54' W 122°49'1 1.8
2018-Apr-22 00:30N 45°55' W 122°49'4 6.1
2018-Apr-21 23:54N 45°59' W 122°50'2 6.3
2018-Apr-21 23:30N 46°01' W 122°52'3 6.4
2018-Apr-21 23:00N 46°04' W 122°53'2 4.6
2018-Apr-21 22:30N 46°06' W 122°56'2 3.8
2018-Apr-21 22:00N 46°07' W 122°58'0 0.6
2018-Apr-21 21:30N 46°07' W 122°58'1 1.9
2018-Apr-21 21:00N 46°06' W 122°57'1 2.4
2018-Apr-21 20:30N 46°05' W 122°56'  
2018-Apr-19 02:09N 46°05' W 122°56'0 3.2
2018-Apr-19 02:00N 46°06' W 122°56'0 0.3
2018-Apr-19 01:19N 46°06' W 122°56'0 1.1
2018-Apr-19 01:00N 46°05' W 122°56'1 2.8
2018-Apr-19 00:30N 46°06' W 122°57'1 2.4
2018-Apr-19 00:00N 46°06' W 122°56'0 0.0
2018-Apr-17 01:30N 46°06' W 122°56'0 0.3
2018-Apr-17 01:00N 46°06' W 122°56'2 3.1
2018-Apr-17 00:24N 46°07' W 122°58'0 0.1
2018-Apr-17 00:00N 46°07' W 122°58'0 0.1
2018-Apr-16 23:24N 46°07' W 122°58'0 0.3
2018-Apr-16 23:00N 46°07' W 122°58'  
Track history (hours):
 
Tides and Currents Weather Stations Pressure Air Temp Water Temp Dewpoint Dewpoint Depression Visibility Wind Speed Wind Dir Waves Ship Positions

Mary B.

Owner: Bernert Barge Lines, Oregon City, OR. More information available from US FCC via Universal Licensing System and Coast Guard Vessel Documentation Center.

Last reported at 2018-Apr-24 08:28 UTC. Time now 2018-Apr-26 01:24 UTC.
Position N 46°05' W 122°56'.

MMSI: 333761398.

Date/timePositionNaut miles runAvg speedWind from/ knotsBaromVisibWave heightAir tempDewpointWater temp
2018-Apr-24 08:28N 46°05' W 122°56'0 1.0
2018-Apr-24 08:00N 46°06' W 122°56'0 0.3
2018-Apr-24 07:30N 46°06' W 122°55'0 0.0
2018-Apr-24 07:01N 46°06' W 122°55'0 0.8
2018-Apr-24 06:30N 46°06' W 122°56'0 0.8
2018-Apr-24 06:00N 46°06' W 122°55'1 1.0
2018-Apr-24 05:30N 46°06' W 122°56'0 0.0
2018-Apr-23 04:59N 46°05' W 122°56'0 0.9
2018-Apr-23 04:30N 46°06' W 122°56'0 0.3
2018-Apr-23 04:00N 46°06' W 122°56'1 1.0
2018-Apr-23 03:30N 46°06' W 122°56'2 3.1
2018-Apr-23 03:00N 46°07' W 122°58'0 0.8
2018-Apr-23 02:30N 46°07' W 122°58'0 0.1
2018-Apr-23 02:00N 46°07' W 122°58'5 9.9
2018-Apr-23 01:30N 46°03' W 122°53'611.8
2018-Apr-23 01:00N 45°58' W 122°50'611.7
2018-Apr-23 00:30N 45°52' W 122°47'611.3
2018-Apr-23 00:00N 45°47' W 122°46'611.4
2018-Apr-22 23:30N 45°41' W 122°47'510.8
2018-Apr-22 23:00N 45°37' W 122°41'510.9
2018-Apr-22 22:31N 45°36' W 122°34'611.3
2018-Apr-22 22:01N 45°34' W 122°26'5 9.4
2018-Apr-22 21:30N 45°33' W 122°19'611.0
2018-Apr-22 20:59N 45°34' W 122°11'4 0.4
2018-Apr-22 08:51N 45°35' W 122°05'4 6.7
2018-Apr-22 08:17N 45°35' W 122°11'2 6.5
2018-Apr-22 07:57N 45°33' W 122°13'4 6.1
2018-Apr-22 07:16N 45°33' W 122°19'2 5.8
2018-Apr-22 06:58N 45°34' W 122°21'3 5.1
2018-Apr-22 06:21N 45°34' W 122°26'2 5.8
2018-Apr-22 06:00N 45°35' W 122°29'4 6.1
2018-Apr-22 05:23N 45°36' W 122°34'2 6.0
2018-Apr-22 05:00N 45°36' W 122°37'3 6.0
2018-Apr-22 04:30N 45°37' W 122°41'3 6.4
2018-Apr-22 04:00N 45°39' W 122°45'3 6.3
2018-Apr-22 03:29N 45°42' W 122°46'3 6.4
2018-Apr-22 03:00N 45°45' W 122°46'3 6.4
2018-Apr-22 02:30N 45°48' W 122°47'3 6.3
2018-Apr-22 02:00N 45°51' W 122°47'3 6.0
2018-Apr-22 01:30N 45°54' W 122°49'0 0.5
2018-Apr-22 01:00N 45°54' W 122°49'1 1.8
2018-Apr-22 00:30N 45°55' W 122°49'4 6.1
2018-Apr-21 23:54N 45°59' W 122°50'2 6.3
2018-Apr-21 23:30N 46°01' W 122°52'3 6.4
2018-Apr-21 23:00N 46°04' W 122°53'2 4.6
2018-Apr-21 22:30N 46°06' W 122°56'2 3.8
2018-Apr-21 22:00N 46°07' W 122°58'0 0.6
2018-Apr-21 21:30N 46°07' W 122°58'1 1.9
2018-Apr-21 21:00N 46°06' W 122°57'1 2.4
2018-Apr-21 20:30N 46°05' W 122°56'  
2018-Apr-19 02:09N 46°05' W 122°56'0 3.2
2018-Apr-19 02:00N 46°06' W 122°56'0 0.3
2018-Apr-19 01:19N 46°06' W 122°56'0 1.1
2018-Apr-19 01:00N 46°05' W 122°56'1 2.8
2018-Apr-19 00:30N 46°06' W 122°57'1 2.4
2018-Apr-19 00:00N 46°06' W 122°56'0 0.0
2018-Apr-17 01:30N 46°06' W 122°56'0 0.3
2018-Apr-17 01:00N 46°06' W 122°56'2 3.1
2018-Apr-17 00:24N 46°07' W 122°58'0 0.1
2018-Apr-17 00:00N 46°07' W 122°58'0 0.1
2018-Apr-16 23:24N 46°07' W 122°58'0 0.3
2018-Apr-16 23:00N 46°07' W 122°58'  

Dump ship's entire track history